Time;durP1;ratioP1;P1;durP2;ratioP2;P2;SDS_P1;SDS_P2;PMS_P1;PMS_P2;Temp;Humidity;BMP_temperature;BMP_pressure;BME280_temperature;BME280_humidity;BME280_pressure;Samples;Min_cycle;Max_cycle;Signal;HPM_P1;HPM_P2
2023/04/07 00:02:01;;;;;;;7.97;7.20;;;7.90;92.80;;;;;;5061847;28;20199;-65
2023/04/07 00:04:29;;;;;;;7.80;7.03;;;7.90;92.70;;;;;;5060291;28;20861;-67
2023/04/07 00:06:56;;;;;;;7.85;6.97;;;7.90;92.60;;;;;;5063696;28;20194;-67
2023/04/07 00:09:24;;;;;;;7.63;6.93;;;8.00;92.80;;;;;;5063117;28;20314;-68
2023/04/07 00:11:51;;;;;;;7.82;7.03;;;8.00;92.70;;;;;;5060289;28;20219;-67
2023/04/07 00:14:18;;;;;;;7.85;7.15;;;8.10;92.60;;;;;;5057993;28;20229;-67
2023/04/07 00:16:45;;;;;;;8.27;7.47;;;8.10;92.70;;;;;;5059143;28;20260;-67
2023/04/07 00:19:12;;;;;;;7.82;7.13;;;8.10;92.60;;;;;;5062846;28;20228;-67
2023/04/07 00:21:41;;;;;;;8.20;7.15;;;8.10;92.60;;;;;;5040351;28;20213;-67
2023/04/07 00:24:08;;;;;;;8.02;7.20;;;8.10;92.50;;;;;;5060039;28;20203;-67
2023/04/07 00:26:35;;;;;;;7.13;6.47;;;8.20;92.40;;;;;;5062305;28;20276;-67
2023/04/07 00:29:02;;;;;;;7.65;6.95;;;8.20;92.50;;;;;;5085382;28;20218;-68
2023/04/07 00:31:29;;;;;;;7.10;6.43;;;8.20;92.60;;;;;;5061455;28;20279;-67
2023/04/07 00:33:56;;;;;;;7.05;6.35;;;8.20;92.60;;;;;;5065185;28;20230;-67
2023/04/07 00:36:23;;;;;;;6.35;5.85;;;8.20;92.50;;;;;;5049462;28;20205;-67
2023/04/07 00:38:52;;;;;;;7.78;7.03;;;8.20;92.40;;;;;;5062162;28;20254;-67
2023/04/07 00:41:19;;;;;;;7.68;6.60;;;8.20;92.40;;;;;;5063278;28;20188;-68
2023/04/07 00:43:46;;;;;;;6.68;5.95;;;8.20;92.50;;;;;;5048969;28;20198;-68
2023/04/07 00:46:13;;;;;;;6.32;5.82;;;8.20;92.60;;;;;;5027425;28;20234;-68
2023/04/07 00:48:40;;;;;;;6.80;6.20;;;8.20;92.10;;;;;;5059215;28;20937;-67
2023/04/07 00:51:08;;;;;;;7.57;6.90;;;8.20;91.80;;;;;;5061987;28;20219;-65
2023/04/07 00:53:35;;;;;;;6.90;6.30;;;8.20;92.00;;;;;;5061388;28;20253;-67
2023/04/07 00:56:03;;;;;;;6.97;6.28;;;8.20;92.20;;;;;;5059937;28;20248;-67
2023/04/07 00:58:30;;;;;;;6.97;6.28;;;8.20;92.30;;;;;;5063682;28;20310;-67
2023/04/07 01:01:10;;;;;;;7.05;6.45;;;8.20;92.20;;;;;;5066517;28;20206;-67
2023/04/07 01:04:00;;;;;;;7.03;6.38;;;8.20;92.00;;;;;;5058195;28;20223;-67
2023/04/07 01:06:33;;;;;;;7.38;6.68;;;8.20;92.00;;;;;;5063551;28;20264;-67
2023/04/07 01:09:05;;;;;;;6.65;6.05;;;8.10;92.40;;;;;;5062325;28;20223;-67
2023/04/07 01:11:42;;;;;;;7.28;6.57;;;8.00;92.60;;;;;;5064378;28;20615;-66
2023/04/07 01:14:11;;;;;;;6.38;5.88;;;8.00;92.70;;;;;;5043041;28;20244;-66
2023/04/07 01:16:42;;;;;;;7.60;6.85;;;8.00;92.80;;;;;;5061549;28;20294;-68
2023/04/07 01:19:16;;;;;;;7.40;6.70;;;8.00;92.60;;;;;;5063924;28;20218;-67
2023/04/07 01:21:47;;;;;;;7.40;6.70;;;8.00;92.50;;;;;;5057259;28;20659;-67
2023/04/07 01:24:35;;;;;;;6.85;6.15;;;8.00;92.30;;;;;;5061856;28;20226;-68
2023/04/07 01:27:19;;;;;;;6.70;6.10;;;8.00;92.30;;;;;;5068289;28;20232;-67
2023/04/07 01:29:49;;;;;;;6.70;5.65;;;8.00;92.30;;;;;;5064856;28;20901;-67
2023/04/07 01:32:20;;;;;;;7.47;6.65;;;7.90;92.50;;;;;;5064164;28;20240;-67
2023/04/07 01:34:49;;;;;;;6.55;5.95;;;7.90;92.50;;;;;;5060605;28;20860;-67
2023/04/07 01:37:17;;;;;;;6.32;5.72;;;7.90;92.60;;;;;;5050310;28;20252;-67
2023/04/07 01:39:44;;;;;;;6.35;5.75;;;7.90;92.70;;;;;;5064763;28;20198;-67
2023/04/07 01:42:12;;;;;;;6.78;6.07;;;7.90;92.80;;;;;;5072408;28;20190;-64
2023/04/07 01:44:40;;;;;;;6.30;5.70;;;7.90;92.90;;;;;;5074627;28;20225;-66
2023/04/07 01:47:09;;;;;;;6.50;5.90;;;7.90;93.00;;;;;;5063733;28;20205;-67
2023/04/07 01:49:38;;;;;;;7.25;6.55;;;7.80;93.10;;;;;;5043720;28;20183;-65
2023/04/07 01:52:06;;;;;;;6.32;5.78;;;7.80;93.10;;;;;;5059058;28;20225;-67
2023/04/07 01:54:34;;;;;;;6.63;6.03;;;7.90;93.20;;;;;;5064955;28;20236;-67
2023/04/07 01:57:01;;;;;;;6.53;5.82;;;7.90;93.20;;;;;;5059758;28;20206;-67
2023/04/07 01:59:28;;;;;;;6.78;6.18;;;7.90;93.00;;;;;;5060732;28;20225;-67
2023/04/07 02:01:55;;;;;;;6.90;6.30;;;7.90;92.90;;;;;;5059742;28;20191;-66
2023/04/07 02:04:31;;;;;;;6.57;5.97;;;7.80;92.70;;;;;;5067304;28;20205;-67
2023/04/07 02:07:03;;;;;;;7.15;6.30;;;7.80;92.70;;;;;;5061834;28;20201;-67
2023/04/07 02:09:33;;;;;;;7.43;6.68;;;7.80;92.80;;;;;;5063601;28;20248;-67
2023/04/07 02:12:04;;;;;;;8.15;7.20;;;7.80;92.90;;;;;;5063540;28;20241;-66
2023/04/07 02:14:32;;;;;;;7.35;6.70;;;7.80;92.90;;;;;;5061095;28;20675;-66
2023/04/07 02:17:01;;;;;;;7.55;6.63;;;7.80;92.80;;;;;;5058602;28;20233;-67
2023/04/07 02:19:30;;;;;;;7.00;6.35;;;7.70;92.60;;;;;;5062998;28;20276;-67
2023/04/07 02:21:59;;;;;;;6.65;6.05;;;7.70;92.60;;;;;;5062970;28;20198;-67
2023/04/07 02:24:26;;;;;;;10.00;5.88;;;7.70;92.80;;;;;;5061867;28;20202;-67
2023/04/07 02:26:53;;;;;;;7.10;6.50;;;7.70;92.90;;;;;;5063237;28;20203;-67
2023/04/07 02:29:20;;;;;;;6.68;6.03;;;7.70;93.00;;;;;;5059079;28;20254;-66
2023/04/07 02:31:47;;;;;;;7.05;6.35;;;7.70;93.10;;;;;;5060258;28;20310;-66
2023/04/07 02:34:14;;;;;;;6.35;5.78;;;7.70;93.00;;;;;;5062844;28;20263;-66
2023/04/07 02:36:43;;;;;;;6.55;6.05;;;7.70;93.10;;;;;;5062351;28;20267;-67
2023/04/07 02:39:10;;;;;;;6.80;6.20;;;7.70;93.10;;;;;;5060688;28;20225;-67
2023/04/07 02:41:37;;;;;;;6.28;5.78;;;7.70;93.00;;;;;;5059608;28;20199;-66
2023/04/07 02:44:05;;;;;;;6.60;5.88;;;7.70;93.10;;;;;;5040671;28;20194;-67
2023/04/07 02:46:32;;;;;;;6.32;5.78;;;7.70;93.10;;;;;;5042968;28;20198;-67
2023/04/07 02:48:59;;;;;;;6.20;5.65;;;7.60;92.90;;;;;;5040727;28;20309;-67
2023/04/07 02:51:26;;;;;;;6.45;5.93;;;7.60;93.30;;;;;;5057123;28;20218;-66
2023/04/07 02:53:55;;;;;;;6.88;6.28;;;7.60;93.70;;;;;;5044474;28;20200;-67
2023/04/07 02:56:22;;;;;;;7.00;6.40;;;7.60;93.60;;;;;;5048440;28;20317;-63
2023/04/07 02:58:49;;;;;;;6.43;5.65;;;7.50;93.60;;;;;;5074961;28;20438;-67
2023/04/07 03:01:17;;;;;;;5.88;5.38;;;7.50;93.60;;;;;;5058371;28;20229;-64
2023/04/07 03:03:46;;;;;;;6.82;6.13;;;7.50;93.60;;;;;;5060851;28;20202;-67
2023/04/07 03:06:13;;;;;;;6.82;5.90;;;7.60;93.70;;;;;;5058792;28;20685;-66
2023/04/07 03:08:41;;;;;;;5.93;5.45;;;7.60;93.70;;;;;;5060813;28;20299;-67
2023/04/07 03:11:09;;;;;;;6.13;5.63;;;7.60;93.70;;;;;;5058993;28;20210;-66
2023/04/07 03:13:36;;;;;;;6.88;6.28;;;7.50;93.60;;;;;;5061970;28;20278;-67
2023/04/07 03:16:03;;;;;;;6.40;5.80;;;7.60;93.60;;;;;;5059168;28;20229;-66
2023/04/07 03:18:30;;;;;;;6.75;6.25;;;7.50;93.30;;;;;;5058242;28;20230;-66
2023/04/07 03:20:58;;;;;;;6.93;6.32;;;7.50;93.30;;;;;;5046056;28;20355;-66
2023/04/07 03:23:27;;;;;;;6.43;5.82;;;7.50;93.40;;;;;;5054650;28;20776;-67
2023/04/07 03:25:54;;;;;;;7.63;6.80;;;7.50;93.40;;;;;;5066234;28;20209;-66
2023/04/07 03:28:23;;;;;;;6.82;6.18;;;7.50;93.60;;;;;;5059935;28;20688;-67
2023/04/07 03:30:50;;;;;;;6.63;6.03;;;7.40;93.50;;;;;;5064350;28;20209;-67
2023/04/07 03:33:17;;;;;;;6.68;6.07;;;7.40;93.70;;;;;;5060551;28;20312;-65
2023/04/07 03:35:44;;;;;;;6.10;5.60;;;7.40;93.70;;;;;;5062872;28;20228;-67
2023/04/07 03:38:11;;;;;;;5.65;5.15;;;7.30;93.80;;;;;;5063289;28;20258;-67
2023/04/07 03:40:38;;;;;;;5.97;5.47;;;7.30;94.10;;;;;;5041196;28;20284;-67
2023/04/07 03:43:11;;;;;;;6.85;6.25;;;7.20;94.20;;;;;;5064886;28;20332;-67
2023/04/07 03:45:39;;;;;;;7.88;6.20;;;7.20;94.10;;;;;;5065228;28;20570;-67
2023/04/07 03:48:09;;;;;;;6.50;5.90;;;7.20;93.90;;;;;;5062916;28;20260;-67
2023/04/07 03:50:36;;;;;;;6.43;5.80;;;7.20;93.90;;;;;;5092634;28;20207;-67
2023/04/07 03:53:03;;;;;;;5.75;5.20;;;7.20;94.00;;;;;;5081553;28;20222;-64
2023/04/07 03:55:31;;;;;;;6.28;5.65;;;7.20;94.00;;;;;;5079296;28;20262;-64
2023/04/07 03:57:58;;;;;;;6.30;5.80;;;7.20;94.00;;;;;;5077319;28;20233;-64
2023/04/07 04:00:25;;;;;;;7.47;6.15;;;7.20;93.90;;;;;;5060171;28;20500;-64
2023/04/07 04:02:54;;;;;;;6.60;6.00;;;7.20;93.90;;;;;;5080640;28;20671;-67
2023/04/07 04:05:21;;;;;;;6.35;5.75;;;7.20;93.90;;;;;;5066162;28;20195;-67
2023/04/07 04:07:50;;;;;;;7.05;6.15;;;7.20;93.80;;;;;;5067320;28;20218;-67
2023/04/07 04:10:17;;;;;;;6.43;5.82;;;7.20;93.90;;;;;;5047529;28;20202;-63
2023/04/07 04:12:44;;;;;;;5.78;5.28;;;7.20;93.80;;;;;;5052851;28;20252;-65
2023/04/07 04:15:11;;;;;;;5.55;5.13;;;7.20;93.70;;;;;;5066222;28;20206;-67
2023/04/07 04:17:39;;;;;;;6.00;5.50;;;7.10;93.70;;;;;;5065123;28;20222;-66
2023/04/07 04:20:09;;;;;;;5.55;5.05;;;7.10;93.70;;;;;;5058003;28;20499;-65
2023/04/07 04:22:36;;;;;;;5.72;5.22;;;7.10;93.90;;;;;;5029512;28;20321;-67
2023/04/07 04:25:05;;;;;;;6.25;5.60;;;7.10;93.80;;;;;;5060302;28;20202;-67
2023/04/07 04:27:31;;;;;;;5.35;4.80;;;7.00;93.70;;;;;;5056295;28;20233;-66
2023/04/07 04:29:59;;;;;;;5.88;5.38;;;6.90;93.60;;;;;;5064611;28;20222;-67
2023/04/07 04:32:26;;;;;;;6.10;5.47;;;6.90;93.60;;;;;;5060626;28;20296;-67
2023/04/07 04:34:53;;;;;;;6.72;6.07;;;6.80;93.60;;;;;;5041892;28;20191;-66
2023/04/07 04:37:21;;;;;;;6.00;5.50;;;6.80;93.60;;;;;;5060925;28;20230;-66
2023/04/07 04:39:49;;;;;;;6.30;5.70;;;6.70;93.90;;;;;;5067407;28;20234;-66
2023/04/07 04:42:16;;;;;;;5.38;4.97;;;6.60;94.00;;;;;;5059929;28;20221;-66
2023/04/07 04:44:43;;;;;;;5.63;5.22;;;6.60;94.20;;;;;;5064269;28;20304;-65
2023/04/07 04:47:10;;;;;;;6.43;5.82;;;6.50;94.40;;;;;;5063180;28;20302;-67
2023/04/07 04:49:37;;;;;;;6.35;5.85;;;6.50;94.50;;;;;;5054831;28;20589;-67
2023/04/07 04:52:05;;;;;;;6.40;5.90;;;6.40;94.60;;;;;;5063902;28;20614;-67
2023/04/07 04:54:33;;;;;;;5.93;5.40;;;6.40;94.70;;;;;;5067411;28;20195;-67
2023/04/07 04:57:00;;;;;;;8.68;6.00;;;6.30;94.60;;;;;;5060809;28;20210;-65
2023/04/07 04:59:27;;;;;;;6.35;5.75;;;6.30;94.70;;;;;;5058044;28;20799;-66
2023/04/07 05:01:54;;;;;;;6.05;5.43;;;6.30;94.60;;;;;;5065061;28;20626;-67
2023/04/07 05:04:22;;;;;;;5.85;5.35;;;6.30;94.60;;;;;;5062481;28;20198;-67
2023/04/07 05:06:49;;;;;;;5.38;4.88;;;6.30;94.40;;;;;;5061660;28;20620;-67
2023/04/07 05:09:16;;;;;;;5.90;5.40;;;6.30;94.80;;;;;;5064487;28;20280;-69
2023/04/07 05:11:45;;;;;;;5.90;5.40;;;6.40;94.60;;;;;;5045633;28;20209;-69
2023/04/07 05:14:12;;;;;;;7.00;5.78;;;6.40;94.50;;;;;;5066183;28;20310;-68
2023/04/07 05:16:39;;;;;;;5.70;5.20;;;6.40;94.40;;;;;;5064642;28;20199;-68
2023/04/07 05:19:06;;;;;;;5.80;5.30;;;6.30;94.30;;;;;;5067425;28;20377;-68
2023/04/07 05:21:33;;;;;;;5.50;5.00;;;6.40;94.40;;;;;;5063251;28;20256;-67
2023/04/07 05:24:01;;;;;;;7.40;6.70;;;6.40;94.40;;;;;;5062640;28;20190;-66
2023/04/07 05:26:28;;;;;;;7.60;6.35;;;6.40;94.70;;;;;;5060450;28;20388;-67
2023/04/07 05:28:56;;;;;;;6.50;5.90;;;6.40;94.60;;;;;;5056529;28;20218;-68
2023/04/07 05:31:24;;;;;;;6.75;6.15;;;6.40;94.50;;;;;;5065230;28;20202;-65
2023/04/07 05:33:51;;;;;;;6.40;5.90;;;6.40;94.60;;;;;;5061245;28;20229;-68
2023/04/07 05:36:19;;;;;;;8.07;5.40;;;6.50;94.70;;;;;;5063536;28;20305;-68
2023/04/07 05:38:46;;;;;;;5.07;4.68;;;6.50;94.80;;;;;;5063419;28;20741;-66
2023/04/07 05:41:13;;;;;;;5.50;5.00;;;6.50;94.70;;;;;;5061348;28;20198;-68
2023/04/07 05:43:40;;;;;;;6.10;5.55;;;6.60;94.70;;;;;;5045898;28;20203;-68
2023/04/07 05:46:09;;;;;;;7.63;5.72;;;6.70;94.80;;;;;;5063676;28;20691;-68
2023/04/07 05:48:36;;;;;;;6.72;6.03;;;6.90;94.70;;;;;;5062727;28;20226;-68
2023/04/07 05:51:03;;;;;;;5.75;5.28;;;7.00;94.70;;;;;;5064634;28;20203;-68
2023/04/07 05:53:30;;;;;;;6.47;5.75;;;7.20;94.80;;;;;;5066862;28;20702;-68
2023/04/07 05:55:58;;;;;;;9.07;6.38;;;7.30;94.70;;;;;;5058717;28;20247;-68
2023/04/07 05:58:25;;;;;;;6.95;6.32;;;7.50;94.60;;;;;;5060570;28;20604;-68
2023/04/07 06:00:52;;;;;;;6.95;6.25;;;7.60;94.70;;;;;;5061045;28;20548;-68
2023/04/07 06:03:21;;;;;;;6.78;6.07;;;7.70;94.50;;;;;;5059731;28;20273;-68
2023/04/07 06:05:48;;;;;;;7.15;6.53;;;7.80;94.60;;;;;;5059182;28;20282;-67
2023/04/07 06:08:15;;;;;;;7.10;6.40;;;7.80;95.00;;;;;;5061179;28;20246;-68
2023/04/07 06:10:43;;;;;;;8.27;6.18;;;7.70;95.20;;;;;;5066788;28;20552;-69
2023/04/07 06:13:10;;;;;;;7.38;6.78;;;7.80;95.10;;;;;;5060371;28;20241;-68
2023/04/07 06:15:37;;;;;;;7.40;6.72;;;7.90;95.20;;;;;;5059356;28;20238;-68
2023/04/07 06:18:04;;;;;;;7.35;6.65;;;7.90;95.00;;;;;;5063947;28;20319;-69
2023/04/07 06:20:32;;;;;;;8.32;6.68;;;8.10;94.70;;;;;;5058838;28;20363;-68
2023/04/07 06:23:00;;;;;;;7.35;6.75;;;8.10;94.60;;;;;;5075195;28;20205;-68
2023/04/07 06:25:27;;;;;;;7.43;6.72;;;8.20;94.80;;;;;;5060954;28;20761;-68
2023/04/07 06:27:55;;;;;;;10.70;6.93;;;8.30;95.10;;;;;;5061896;28;20217;-69
2023/04/07 06:30:22;;;;;;;7.90;6.88;;;8.30;95.20;;;;;;5059701;28;20290;-69
2023/04/07 06:32:49;;;;;;;9.48;7.47;;;8.40;95.20;;;;;;5059395;28;20209;-68
2023/04/07 06:35:16;;;;;;;9.02;7.55;;;8.40;95.30;;;;;;5061403;28;20202;-69
2023/04/07 06:37:45;;;;;;;8.68;7.10;;;8.40;95.10;;;;;;5059118;28;20620;-69
2023/04/07 06:40:12;;;;;;;9.02;7.97;;;8.40;95.00;;;;;;5072536;28;20228;-66
2023/04/07 06:42:39;;;;;;;7.95;7.07;;;8.40;94.70;;;;;;5078748;28;20195;-69
2023/04/07 06:45:07;;;;;;;8.93;8.02;;;8.40;94.90;;;;;;5044236;28;20203;-69
2023/04/07 06:47:35;;;;;;;10.43;8.43;;;8.40;94.70;;;;;;5061620;28;20276;-67
2023/04/07 06:50:02;;;;;;;8.02;7.32;;;8.50;94.90;;;;;;5059268;28;20244;-69
2023/04/07 06:52:29;;;;;;;8.32;7.45;;;8.60;95.00;;;;;;5060305;28;20275;-69
2023/04/07 06:54:58;;;;;;;8.57;7.78;;;8.60;94.90;;;;;;5061074;28;20205;-69
2023/04/07 06:57:26;;;;;;;8.93;8.02;;;8.70;94.70;;;;;;5042716;28;20269;-69
2023/04/07 06:59:53;;;;;;;11.93;8.73;;;8.70;95.00;;;;;;5074425;28;20206;-69
2023/04/07 07:02:20;;;;;;;9.65;8.68;;;8.80;95.60;;;;;;5061853;28;20226;-69
2023/04/07 07:04:49;;;;;;;9.00;7.90;;;8.90;95.40;;;;;;5065408;28;20199;-69
2023/04/07 07:07:16;;;;;;;8.25;7.45;;;9.20;94.90;;;;;;5054576;28;20453;-69
2023/04/07 07:09:43;;;;;;;9.82;7.82;;;9.30;94.50;;;;;;5042246;28;20210;-68
2023/04/07 07:12:11;;;;;;;9.30;8.38;;;9.50;94.50;;;;;;5064600;28;20198;-68
2023/04/07 07:14:39;;;;;;;8.50;7.68;;;9.80;94.60;;;;;;5044518;28;20281;-67
2023/04/07 07:17:06;;;;;;;9.18;8.07;;;10.00;95.80;;;;;;5060866;28;20198;-65
2023/04/07 07:19:33;;;;;;;9.48;8.20;;;10.20;95.00;;;;;;5060519;28;20226;-67
2023/04/07 07:22:02;;;;;;;9.30;8.15;;;10.40;94.90;;;;;;5064335;28;20202;-67
2023/04/07 07:24:32;;;;;;;10.50;8.70;;;10.50;94.60;;;;;;5058888;28;20732;-66
2023/04/07 07:27:00;;;;;;;11.93;8.38;;;10.60;95.00;;;;;;5057055;28;20690;-67
2023/04/07 07:29:29;;;;;;;11.07;8.10;;;10.60;94.80;;;;;;5063681;28;20234;-68
2023/04/07 07:31:56;;;;;;;8.88;8.07;;;10.60;94.60;;;;;;5059958;28;20229;-67
2023/04/07 07:34:23;;;;;;;10.25;9.35;;;10.60;94.60;;;;;;5066514;28;20725;-67
2023/04/07 07:36:50;;;;;;;11.02;8.90;;;10.50;94.40;;;;;;5064121;28;20230;-66
2023/04/07 07:39:18;;;;;;;10.23;8.80;;;10.60;95.10;;;;;;5040729;28;20218;-67
2023/04/07 07:41:45;;;;;;;11.07;8.68;;;10.80;95.40;;;;;;5064047;28;20209;-67
2023/04/07 07:44:12;;;;;;;10.52;8.55;;;10.70;95.60;;;;;;5062680;28;20611;-64
2023/04/07 07:46:41;;;;;;;10.38;8.88;;;10.90;95.80;;;;;;5055034;28;20262;-67
2023/04/07 07:49:08;;;;;;;10.23;9.00;;;11.00;95.20;;;;;;5060907;28;20275;-67
2023/04/07 07:51:35;;;;;;;12.25;9.40;;;11.20;95.40;;;;;;5062809;28;20225;-66
2023/04/07 07:54:02;;;;;;;10.73;9.65;;;11.50;94.90;;;;;;5064569;28;20221;-67
2023/04/07 07:56:30;;;;;;;10.30;9.27;;;11.90;94.90;;;;;;5062473;28;20197;-64
2023/04/07 07:58:57;;;;;;;11.48;9.38;;;12.40;93.60;;;;;;5064622;28;20213;-67
2023/04/07 08:01:24;;;;;;;10.30;9.02;;;12.60;93.00;;;;;;5062499;28;20230;-67
2023/04/07 08:03:53;;;;;;;9.95;9.05;;;12.90;92.90;;;;;;5062675;28;20203;-68
2023/04/07 08:06:20;;;;;;;12.15;9.88;;;13.30;92.40;;;;;;5061078;28;20713;-67
2023/04/07 08:08:47;;;;;;;10.35;9.00;;;13.60;91.70;;;;;;5063730;28;20360;-67
2023/04/07 08:11:15;;;;;;;9.57;8.60;;;13.80;90.30;;;;;;5045783;28;20253;-67
2023/04/07 08:13:45;;;;;;;13.48;9.07;;;14.00;90.20;;;;;;5065521;28;20632;-67
2023/04/07 08:16:13;;;;;;;9.40;8.40;;;14.30;88.30;;;;;;5064550;28;20198;-67
2023/04/07 08:18:41;;;;;;;11.98;8.50;;;14.40;88.10;;;;;;5076275;28;20263;-67
2023/04/07 08:21:09;;;;;;;10.00;8.93;;;14.10;87.10;;;;;;5054014;28;20206;-68
2023/04/07 08:23:36;;;;;;;8.82;8.02;;;13.70;88.00;;;;;;5068083;28;20207;-66
2023/04/07 08:26:04;;;;;;;8.93;8.02;;;13.90;87.80;;;;;;5066755;28;20288;-67
2023/04/07 08:28:31;;;;;;;9.90;8.70;;;14.40;86.30;;;;;;5067553;28;20797;-67
2023/04/07 08:30:58;;;;;;;8.68;7.78;;;14.80;86.40;;;;;;5048189;28;20336;-67
2023/04/07 08:33:26;;;;;;;8.90;7.40;;;15.00;84.10;;;;;;5063314;28;20248;-68
2023/04/07 08:35:53;;;;;;;9.60;8.40;;;15.00;82.00;;;;;;5065065;28;20237;-66
2023/04/07 08:38:23;;;;;;;8.30;7.47;;;15.00;81.70;;;;;;5065306;28;20240;-67
2023/04/07 08:40:56;;;;;;;8.95;7.95;;;14.90;82.20;;;;;;5044294;28;20232;-67
2023/04/07 08:43:24;;;;;;;8.85;7.43;;;15.00;82.90;;;;;;5065818;28;20195;-68
2023/04/07 08:45:52;;;;;;;13.40;7.97;;;14.90;82.00;;;;;;5063594;28;20213;-68
2023/04/07 08:48:25;;;;;;;6.63;5.97;;;14.90;81.90;;;;;;5045497;28;20233;-67
2023/04/07 08:50:54;;;;;;;5.93;5.43;;;15.00;79.10;;;;;;5065227;28;20647;-67
2023/04/07 08:53:26;;;;;;;5.35;4.85;;;15.10;76.80;;;;;;5058030;28;20215;-67
2023/04/07 08:55:55;;;;;;;5.18;4.60;;;15.10;74.50;;;;;;5061152;28;21402;-66
2023/04/07 08:58:22;;;;;;;6.65;5.05;;;15.10;73.00;;;;;;5043978;28;20249;-66
2023/04/07 09:00:50;;;;;;;5.50;4.47;;;15.40;74.40;;;;;;5059574;28;20202;-66
2023/04/07 09:03:17;;;;;;;5.28;4.85;;;15.70;74.70;;;;;;5041370;28;20245;-65
2023/04/07 09:05:45;;;;;;;8.05;5.68;;;16.00;73.00;;;;;;5060524;28;20803;-69
2023/04/07 09:08:12;;;;;;;7.63;6.05;;;16.10;73.20;;;;;;5026988;28;20910;-69
2023/04/07 09:10:41;;;;;;;6.95;6.30;;;16.10;73.60;;;;;;5073725;28;20232;-67
2023/04/07 09:13:08;;;;;;;6.60;5.85;;;16.00;74.20;;;;;;5075044;28;20730;-69
2023/04/07 09:15:35;;;;;;;9.38;6.15;;;16.10;73.90;;;;;;5044336;28;20905;-68
2023/04/07 09:18:03;;;;;;;7.97;5.68;;;16.10;73.50;;;;;;5061825;28;20299;-69
2023/04/07 09:20:55;;;;;;;6.10;5.35;;;16.10;72.70;;;;;;5062914;28;20557;-68
2023/04/07 09:23:31;;;;;;;6.30;5.70;;;16.30;72.20;;;;;;5058024;28;20234;-69
2023/04/07 09:26:01;;;;;;;6.97;6.22;;;16.50;71.60;;;;;;5060486;28;20297;-67
2023/04/07 09:28:45;;;;;;;6.85;5.70;;;16.50;72.20;;;;;;5059400;28;20286;-69
2023/04/07 09:31:13;;;;;;;7.18;6.47;;;16.60;71.60;;;;;;5061047;28;20198;-68
2023/04/07 09:33:40;;;;;;;6.35;5.75;;;16.80;71.30;;;;;;5039557;28;20223;-68
2023/04/07 09:36:07;;;;;;;6.57;5.97;;;16.90;72.40;;;;;;5059421;28;20202;-67
2023/04/07 09:38:38;;;;;;;6.45;5.85;;;16.80;70.00;;;;;;5048591;28;20222;-68
2023/04/07 09:41:11;;;;;;;6.03;5.32;;;16.80;69.50;;;;;;5061697;28;20228;-68
2023/04/07 09:43:40;;;;;;;5.90;5.40;;;16.90;69.30;;;;;;5063933;28;20202;-68
2023/04/07 09:46:10;;;;;;;6.78;5.13;;;16.80;69.10;;;;;;5043648;28;20210;-67
2023/04/07 09:48:38;;;;;;;5.57;4.90;;;16.70;68.50;;;;;;5046457;28;20229;-68
2023/04/07 09:51:07;;;;;;;5.50;5.00;;;16.60;67.90;;;;;;5042186;28;20201;-69
2023/04/07 09:53:46;;;;;;;5.70;5.20;;;16.60;69.50;;;;;;5065552;28;20271;-68
2023/04/07 09:56:16;;;;;;;5.47;4.90;;;16.70;67.40;;;;;;5055360;28;20717;-67
2023/04/07 09:58:44;;;;;;;7.03;5.22;;;16.80;68.70;;;;;;5056171;28;20214;-68
2023/04/07 10:01:12;;;;;;;5.32;4.82;;;16.50;68.20;;;;;;5059239;28;20252;-68
2023/04/07 10:03:40;;;;;;;5.88;5.10;;;16.40;68.60;;;;;;5060165;28;20211;-68
2023/04/07 10:06:08;;;;;;;4.63;4.22;;;16.60;67.50;;;;;;5039024;28;20225;-69
2023/04/07 10:08:37;;;;;;;5.93;5.32;;;16.90;67.90;;;;;;5038255;28;20223;-68
2023/04/07 10:11:05;;;;;;;4.95;4.53;;;17.10;67.90;;;;;;5057089;28;20260;-68
2023/04/07 10:13:37;;;;;;;6.65;5.30;;;17.30;68.20;;;;;;5055048;28;20245;-68
2023/04/07 10:16:06;;;;;;;5.28;4.78;;;17.40;67.10;;;;;;5059471;28;20206;-68
2023/04/07 10:18:34;;;;;;;6.18;5.25;;;17.40;65.30;;;;;;5042916;28;20241;-67
2023/04/07 10:21:06;;;;;;;4.88;4.47;;;17.50;64.40;;;;;;5062197;28;20774;-68
2023/04/07 10:23:51;;;;;;;4.60;4.20;;;17.60;63.60;;;;;;5063791;28;20202;-68
2023/04/07 10:26:22;;;;;;;5.25;4.80;;;18.10;63.10;;;;;;5070691;28;20213;-68
2023/04/07 10:28:55;;;;;;;4.82;4.43;;;18.60;61.80;;;;;;5066951;28;20246;-67
2023/04/07 10:31:24;;;;;;;4.57;4.10;;;18.70;60.40;;;;;;5059352;28;20194;-68
2023/04/07 10:33:53;;;;;;;3.40;3.10;;;18.70;61.40;;;;;;5061703;28;20306;-69
2023/04/07 10:36:21;;;;;;;3.95;3.10;;;18.60;57.90;;;;;;5058937;28;20234;-69
2023/04/07 10:39:20;;;;;;;2.85;2.58;;;18.40;57.50;;;;;;5060069;28;20272;-69
2023/04/07 10:41:47;;;;;;;3.42;3.20;;;18.60;55.10;;;;;;5057483;28;20257;-68
2023/04/07 10:44:59;;;;;;;4.50;4.10;;;18.60;57.30;;;;;;5043741;28;20203;-69
2023/04/07 10:47:28;;;;;;;4.00;3.70;;;18.10;57.20;;;;;;5066272;28;20225;-69
2023/04/07 10:50:15;;;;;;;4.20;3.80;;;17.60;58.00;;;;;;5062953;28;20302;-69
2023/04/07 10:52:42;;;;;;;3.97;3.67;;;17.10;58.00;;;;;;5061532;28;20202;-69
2023/04/07 10:55:29;;;;;;;3.58;3.28;;;17.10;58.70;;;;;;5076236;28;20309;-68
2023/04/07 10:58:29;;;;;;;4.07;3.67;;;17.30;58.00;;;;;;5062968;28;20316;-69
2023/04/07 11:01:20;;;;;;;4.25;3.85;;;17.50;59.10;;;;;;5060716;28;20304;-69
2023/04/07 11:03:59;;;;;;;4.10;3.50;;;17.20;57.90;;;;;;5057107;28;20195;-68
2023/04/07 11:06:27;;;;;;;4.03;3.72;;;17.40;60.20;;;;;;5073901;28;20275;-69
2023/04/07 11:08:54;;;;;;;3.92;3.55;;;17.70;60.30;;;;;;5077676;28;20226;-69
2023/04/07 11:11:38;;;;;;;4.22;3.75;;;18.00;59.30;;;;;;5041958;28;20202;-69
2023/04/07 11:14:10;;;;;;;5.55;4.25;;;18.30;58.20;;;;;;5039792;28;20253;-69
2023/04/07 11:16:42;;;;;;;5.10;4.50;;;18.30;57.60;;;;;;5059567;28;21379;-70
2023/04/07 11:19:10;;;;;;;5.60;4.20;;;18.30;58.50;;;;;;5042628;28;20222;-69
2023/04/07 11:21:38;;;;;;;5.47;4.97;;;18.50;58.90;;;;;;5056290;28;20241;-68
2023/04/07 11:24:05;;;;;;;5.20;4.70;;;18.40;58.50;;;;;;5060850;28;20221;-68
2023/04/07 11:26:39;;;;;;;8.77;4.45;;;18.30;58.60;;;;;;5055532;28;20289;-68
2023/04/07 11:29:06;;;;;;;4.85;4.45;;;18.00;59.20;;;;;;5056705;28;20218;-68
2023/04/07 11:31:34;;;;;;;7.57;4.57;;;17.60;60.10;;;;;;5053782;28;20206;-69
2023/04/07 11:34:03;;;;;;;6.53;4.55;;;17.40;60.30;;;;;;5052746;28;20237;-67
2023/04/07 11:36:33;;;;;;;7.28;4.68;;;17.00;60.50;;;;;;5050253;28;20213;-67
2023/04/07 11:39:01;;;;;;;4.75;4.25;;;16.70;61.80;;;;;;5069701;28;20249;-68
2023/04/07 11:41:31;;;;;;;5.50;5.00;;;16.60;62.60;;;;;;5068708;28;20198;-66
2023/04/07 11:44:08;;;;;;;5.18;4.78;;;16.60;59.60;;;;;;5055505;28;20194;-68
2023/04/07 11:46:36;;;;;;;5.95;5.45;;;16.70;59.60;;;;;;5051843;28;20307;-67
2023/04/07 11:49:11;;;;;;;5.25;4.50;;;16.90;58.20;;;;;;5057832;28;20307;-68
2023/04/07 11:51:40;;;;;;;6.18;5.03;;;17.00;57.90;;;;;;5038738;28;20193;-70
2023/04/07 11:54:08;;;;;;;5.85;4.78;;;17.30;58.50;;;;;;5057201;28;20230;-71
2023/04/07 11:56:44;;;;;;;5.80;5.20;;;17.40;56.20;;;;;;5056733;28;20214;-70
2023/04/07 11:59:21;;;;;;;4.93;4.43;;;17.60;59.00;;;;;;5040364;28;20249;-70
2023/04/07 12:01:49;;;;;;;6.63;5.78;;;17.60;59.70;;;;;;5023311;28;20207;-70
2023/04/07 12:04:17;;;;;;;5.97;5.35;;;17.60;59.40;;;;;;5069315;28;20194;-70
2023/04/07 12:06:46;;;;;;;5.60;5.10;;;17.60;59.30;;;;;;5050069;28;20260;-70
2023/04/07 12:09:28;;;;;;;6.25;5.13;;;17.60;59.50;;;;;;5055374;28;20313;-69
2023/04/07 12:11:57;;;;;;;6.25;5.28;;;17.60;60.10;;;;;;5049691;28;20202;-70
2023/04/07 12:14:25;;;;;;;5.93;5.43;;;17.80;60.10;;;;;;5052311;28;20738;-70
2023/04/07 12:16:54;;;;;;;5.90;5.40;;;17.90;60.60;;;;;;5053509;28;20195;-68
2023/04/07 12:19:22;;;;;;;5.38;4.75;;;18.10;60.10;;;;;;5053902;28;20218;-68
2023/04/07 12:21:51;;;;;;;5.38;4.88;;;18.40;59.60;;;;;;5036523;28;20256;-68
2023/04/07 12:24:18;;;;;;;6.55;5.93;;;18.80;58.30;;;;;;5057442;28;20213;-70
2023/04/07 12:26:45;;;;;;;6.25;5.68;;;19.20;57.70;;;;;;5036903;28;20206;-68
2023/04/07 12:29:12;;;;;;;5.65;5.05;;;19.50;56.90;;;;;;5034929;28;20309;-70
2023/04/07 12:31:41;;;;;;;5.70;5.20;;;19.60;57.10;;;;;;5052852;28;20306;-70
2023/04/07 12:34:08;;;;;;;7.55;6.38;;;19.50;56.70;;;;;;5052380;28;20289;-69
2023/04/07 12:36:35;;;;;;;7.90;7.20;;;19.50;56.00;;;;;;5034750;28;20199;-68
2023/04/07 12:39:05;;;;;;;7.40;6.70;;;19.30;56.30;;;;;;5048259;28;20227;-70
2023/04/07 12:41:32;;;;;;;8.38;6.82;;;19.00;57.40;;;;;;5051550;28;20286;-69
2023/04/07 12:43:59;;;;;;;8.43;7.35;;;18.90;56.20;;;;;;5050843;28;20213;-70
2023/04/07 12:46:26;;;;;;;8.82;7.80;;;18.70;56.20;;;;;;5027479;28;20326;-70
2023/04/07 12:48:54;;;;;;;8.68;7.88;;;18.60;57.20;;;;;;5050861;28;20218;-70
2023/04/07 12:51:21;;;;;;;8.77;7.95;;;18.60;58.20;;;;;;5050424;28;20211;-68
2023/04/07 12:53:49;;;;;;;8.73;7.82;;;18.60;57.30;;;;;;5047383;28;20201;-68
2023/04/07 12:56:17;;;;;;;8.55;7.60;;;18.50;57.30;;;;;;5066973;28;20219;-68
2023/04/07 12:58:44;;;;;;;11.32;7.28;;;18.50;57.50;;;;;;5055388;28;20252;-70
2023/04/07 13:01:12;;;;;;;7.03;6.32;;;18.70;57.10;;;;;;5050154;28;20210;-69
2023/04/07 13:03:41;;;;;;;8.05;7.35;;;18.70;56.90;;;;;;5052406;28;20288;-70